sensor_id;sensor_type;location;lat;lon;timestamp;P1;durP1;ratioP1;P2;durP2;ratioP2
20454;SDS011;10386;54.314;10.022;2023-02-15T00:01:36;67.53;;;22.63;;
20454;SDS011;10386;54.314;10.022;2023-02-15T00:04:04;66.60;;;23.00;;
20454;SDS011;10386;54.314;10.022;2023-02-15T00:06:32;71.17;;;22.33;;
20454;SDS011;10386;54.314;10.022;2023-02-15T00:08:59;79.27;;;23.77;;
20454;SDS011;10386;54.314;10.022;2023-02-15T00:11:27;74.10;;;23.97;;
20454;SDS011;10386;54.314;10.022;2023-02-15T00:14:10;69.07;;;22.80;;
20454;SDS011;10386;54.314;10.022;2023-02-15T00:16:39;74.77;;;22.97;;
20454;SDS011;10386;54.314;10.022;2023-02-15T00:19:07;73.73;;;24.10;;
20454;SDS011;10386;54.314;10.022;2023-02-15T00:21:35;66.10;;;20.77;;
20454;SDS011;10386;54.314;10.022;2023-02-15T00:24:04;69.13;;;22.53;;
20454;SDS011;10386;54.314;10.022;2023-02-15T00:26:32;73.83;;;22.80;;
20454;SDS011;10386;54.314;10.022;2023-02-15T00:28:59;66.63;;;21.00;;
20454;SDS011;10386;54.314;10.022;2023-02-15T00:31:27;70.83;;;23.33;;
20454;SDS011;10386;54.314;10.022;2023-02-15T00:34:13;74.10;;;24.00;;
20454;SDS011;10386;54.314;10.022;2023-02-15T00:36:41;76.23;;;21.87;;
20454;SDS011;10386;54.314;10.022;2023-02-15T00:39:09;83.00;;;24.23;;
20454;SDS011;10386;54.314;10.022;2023-02-15T00:41:36;66.83;;;22.53;;
20454;SDS011;10386;54.314;10.022;2023-02-15T00:44:03;71.03;;;23.33;;
20454;SDS011;10386;54.314;10.022;2023-02-15T00:46:30;77.20;;;24.67;;
20454;SDS011;10386;54.314;10.022;2023-02-15T00:48:58;74.37;;;24.47;;
20454;SDS011;10386;54.314;10.022;2023-02-15T00:51:25;64.13;;;21.40;;
20454;SDS011;10386;54.314;10.022;2023-02-15T00:53:52;66.57;;;21.13;;
20454;SDS011;10386;54.314;10.022;2023-02-15T00:56:19;65.97;;;20.73;;
20454;SDS011;10386;54.314;10.022;2023-02-15T00:58:46;64.67;;;20.97;;
20454;SDS011;10386;54.314;10.022;2023-02-15T01:01:14;71.80;;;21.73;;
20454;SDS011;10386;54.314;10.022;2023-02-15T01:03:43;71.80;;;23.97;;
20454;SDS011;10386;54.314;10.022;2023-02-15T01:06:13;70.60;;;22.23;;
20454;SDS011;10386;54.314;10.022;2023-02-15T01:08:40;76.23;;;24.27;;
20454;SDS011;10386;54.314;10.022;2023-02-15T01:11:18;67.73;;;23.73;;
20454;SDS011;10386;54.314;10.022;2023-02-15T01:13:57;83.13;;;23.60;;
20454;SDS011;10386;54.314;10.022;2023-02-15T01:16:25;67.00;;;21.77;;
20454;SDS011;10386;54.314;10.022;2023-02-15T01:18:53;69.10;;;23.33;;
20454;SDS011;10386;54.314;10.022;2023-02-15T01:21:21;70.30;;;23.03;;
20454;SDS011;10386;54.314;10.022;2023-02-15T01:23:49;71.23;;;23.23;;
20454;SDS011;10386;54.314;10.022;2023-02-15T01:26:16;71.60;;;23.03;;
20454;SDS011;10386;54.314;10.022;2023-02-15T01:28:43;80.03;;;25.10;;
20454;SDS011;10386;54.314;10.022;2023-02-15T01:31:12;67.50;;;21.20;;
20454;SDS011;10386;54.314;10.022;2023-02-15T01:33:40;84.13;;;26.40;;
20454;SDS011;10386;54.314;10.022;2023-02-15T01:36:07;70.20;;;24.40;;
20454;SDS011;10386;54.314;10.022;2023-02-15T01:38:34;84.63;;;25.50;;
20454;SDS011;10386;54.314;10.022;2023-02-15T01:41:02;114.83;;;27.17;;
20454;SDS011;10386;54.314;10.022;2023-02-15T01:43:51;123.03;;;29.17;;
20454;SDS011;10386;54.314;10.022;2023-02-15T01:46:23;161.83;;;30.33;;
20454;SDS011;10386;54.314;10.022;2023-02-15T01:49:03;144.43;;;28.50;;
20454;SDS011;10386;54.314;10.022;2023-02-15T01:51:37;125.47;;;28.70;;
20454;SDS011;10386;54.314;10.022;2023-02-15T01:54:12;233.67;;;27.90;;
20454;SDS011;10386;54.314;10.022;2023-02-15T01:56:46;95.87;;;23.40;;
20454;SDS011;10386;54.314;10.022;2023-02-15T01:59:15;170.00;;;27.33;;
20454;SDS011;10386;54.314;10.022;2023-02-15T02:01:46;123.70;;;23.83;;
20454;SDS011;10386;54.314;10.022;2023-02-15T02:04:18;88.90;;;22.10;;
20454;SDS011;10386;54.314;10.022;2023-02-15T02:06:56;148.13;;;23.63;;
20454;SDS011;10386;54.314;10.022;2023-02-15T02:09:25;93.47;;;24.63;;
20454;SDS011;10386;54.314;10.022;2023-02-15T02:11:51;87.43;;;21.33;;
20454;SDS011;10386;54.314;10.022;2023-02-15T02:14:20;120.83;;;25.63;;
20454;SDS011;10386;54.314;10.022;2023-02-15T02:16:55;61.03;;;19.37;;
20454;SDS011;10386;54.314;10.022;2023-02-15T02:22:55;134.87;;;22.20;;
20454;SDS011;10386;54.314;10.022;2023-02-15T02:47:21;59.23;;;18.80;;
20454;SDS011;10386;54.314;10.022;2023-02-15T02:49:58;182.77;;;22.07;;
20454;SDS011;10386;54.314;10.022;2023-02-15T02:52:42;71.60;;;18.10;;
20454;SDS011;10386;54.314;10.022;2023-02-15T02:55:15;101.63;;;19.03;;
20454;SDS011;10386;54.314;10.022;2023-02-15T02:57:51;85.50;;;20.10;;
20454;SDS011;10386;54.314;10.022;2023-02-15T03:00:23;61.07;;;17.10;;
20454;SDS011;10386;54.314;10.022;2023-02-15T03:03:16;107.83;;;17.07;;
20454;SDS011;10386;54.314;10.022;2023-02-15T03:05:45;67.93;;;16.97;;
20454;SDS011;10386;54.314;10.022;2023-02-15T03:08:15;70.33;;;17.50;;
20454;SDS011;10386;54.314;10.022;2023-02-15T03:10:48;136.97;;;23.80;;
20454;SDS011;10386;54.314;10.022;2023-02-15T03:13:19;67.43;;;17.40;;
20454;SDS011;10386;54.314;10.022;2023-02-15T03:15:47;53.40;;;16.73;;
20454;SDS011;10386;54.314;10.022;2023-02-15T03:18:40;63.10;;;18.47;;
20454;SDS011;10386;54.314;10.022;2023-02-15T03:21:19;39.67;;;17.23;;
20454;SDS011;10386;54.314;10.022;2023-02-15T03:23:54;59.60;;;16.30;;
20454;SDS011;10386;54.314;10.022;2023-02-15T03:26:52;96.97;;;17.63;;
20454;SDS011;10386;54.314;10.022;2023-02-15T03:29:21;66.50;;;16.87;;
20454;SDS011;10386;54.314;10.022;2023-02-15T03:31:53;85.07;;;17.23;;
20454;SDS011;10386;54.314;10.022;2023-02-15T03:34:24;57.30;;;17.47;;
20454;SDS011;10386;54.314;10.022;2023-02-15T03:36:56;71.57;;;18.97;;
20454;SDS011;10386;54.314;10.022;2023-02-15T03:39:34;86.17;;;17.53;;
20454;SDS011;10386;54.314;10.022;2023-02-15T03:42:16;64.20;;;17.67;;
20454;SDS011;10386;54.314;10.022;2023-02-15T03:47:19;65.40;;;17.50;;
20454;SDS011;10386;54.314;10.022;2023-02-15T03:50:05;76.40;;;19.37;;
20454;SDS011;10386;54.314;10.022;2023-02-15T03:52:57;65.57;;;16.17;;
20454;SDS011;10386;54.314;10.022;2023-02-15T03:55:26;99.80;;;19.43;;
20454;SDS011;10386;54.314;10.022;2023-02-15T03:57:54;88.57;;;18.90;;
20454;SDS011;10386;54.314;10.022;2023-02-15T04:00:40;73.03;;;17.33;;
20454;SDS011;10386;54.314;10.022;2023-02-15T04:03:41;106.97;;;18.07;;
20454;SDS011;10386;54.314;10.022;2023-02-15T04:06:12;110.53;;;18.20;;
20454;SDS011;10386;54.314;10.022;2023-02-15T04:08:38;60.73;;;16.27;;
20454;SDS011;10386;54.314;10.022;2023-02-15T04:11:24;73.90;;;17.27;;
20454;SDS011;10386;54.314;10.022;2023-02-15T04:13:50;70.00;;;17.03;;
20454;SDS011;10386;54.314;10.022;2023-02-15T04:16:23;167.77;;;20.80;;
20454;SDS011;10386;54.314;10.022;2023-02-15T04:18:50;124.43;;;19.30;;
20454;SDS011;10386;54.314;10.022;2023-02-15T04:21:35;72.50;;;16.40;;
20454;SDS011;10386;54.314;10.022;2023-02-15T04:24:20;131.17;;;19.63;;
20454;SDS011;10386;54.314;10.022;2023-02-15T04:27:06;119.93;;;18.20;;
20454;SDS011;10386;54.314;10.022;2023-02-15T04:29:32;81.83;;;16.07;;
20454;SDS011;10386;54.314;10.022;2023-02-15T04:32:00;66.17;;;15.70;;
20454;SDS011;10386;54.314;10.022;2023-02-15T04:34:27;120.30;;;18.43;;
20454;SDS011;10386;54.314;10.022;2023-02-15T04:36:54;71.17;;;17.13;;
20454;SDS011;10386;54.314;10.022;2023-02-15T04:39:21;56.67;;;16.50;;
20454;SDS011;10386;54.314;10.022;2023-02-15T04:41:48;83.27;;;17.67;;
20454;SDS011;10386;54.314;10.022;2023-02-15T04:44:15;82.87;;;17.57;;
20454;SDS011;10386;54.314;10.022;2023-02-15T04:46:41;88.10;;;17.13;;
20454;SDS011;10386;54.314;10.022;2023-02-15T04:49:08;76.47;;;17.87;;
20454;SDS011;10386;54.314;10.022;2023-02-15T04:51:35;113.83;;;18.40;;
20454;SDS011;10386;54.314;10.022;2023-02-15T04:54:02;72.97;;;17.47;;
20454;SDS011;10386;54.314;10.022;2023-02-15T04:56:29;102.77;;;17.13;;
20454;SDS011;10386;54.314;10.022;2023-02-15T04:58:57;102.40;;;18.30;;
20454;SDS011;10386;54.314;10.022;2023-02-15T05:01:24;53.73;;;17.03;;
20454;SDS011;10386;54.314;10.022;2023-02-15T05:03:50;69.80;;;16.97;;
20454;SDS011;10386;54.314;10.022;2023-02-15T05:06:17;107.77;;;19.10;;
20454;SDS011;10386;54.314;10.022;2023-02-15T05:08:44;64.10;;;17.77;;
20454;SDS011;10386;54.314;10.022;2023-02-15T05:11:11;128.53;;;20.50;;
20454;SDS011;10386;54.314;10.022;2023-02-15T05:13:37;157.60;;;19.10;;
20454;SDS011;10386;54.314;10.022;2023-02-15T05:16:04;41.37;;;16.43;;
20454;SDS011;10386;54.314;10.022;2023-02-15T05:18:31;78.57;;;18.93;;
20454;SDS011;10386;54.314;10.022;2023-02-15T05:20:59;56.73;;;17.43;;
20454;SDS011;10386;54.314;10.022;2023-02-15T05:23:25;55.27;;;17.07;;
20454;SDS011;10386;54.314;10.022;2023-02-15T05:25:52;143.73;;;20.23;;
20454;SDS011;10386;54.314;10.022;2023-02-15T05:28:37;61.60;;;17.03;;
20454;SDS011;10386;54.314;10.022;2023-02-15T05:31:09;49.40;;;16.90;;
20454;SDS011;10386;54.314;10.022;2023-02-15T05:33:38;40.60;;;15.23;;
20454;SDS011;10386;54.314;10.022;2023-02-15T05:36:05;33.63;;;14.47;;
20454;SDS011;10386;54.314;10.022;2023-02-15T05:38:32;78.37;;;19.67;;
20454;SDS011;10386;54.314;10.022;2023-02-15T05:40:59;46.43;;;16.10;;
20454;SDS011;10386;54.314;10.022;2023-02-15T05:43:26;57.23;;;18.10;;
20454;SDS011;10386;54.314;10.022;2023-02-15T05:45:53;57.10;;;15.17;;
20454;SDS011;10386;54.314;10.022;2023-02-15T05:48:22;92.20;;;17.73;;
20454;SDS011;10386;54.314;10.022;2023-02-15T05:51:00;58.30;;;17.13;;
20454;SDS011;10386;54.314;10.022;2023-02-15T05:53:29;76.90;;;16.30;;
20454;SDS011;10386;54.314;10.022;2023-02-15T05:55:58;53.87;;;16.57;;
20454;SDS011;10386;54.314;10.022;2023-02-15T05:58:27;50.70;;;16.73;;
20454;SDS011;10386;54.314;10.022;2023-02-15T06:00:56;68.47;;;16.30;;
20454;SDS011;10386;54.314;10.022;2023-02-15T06:03:23;81.60;;;17.13;;
20454;SDS011;10386;54.314;10.022;2023-02-15T06:05:52;125.13;;;17.83;;
20454;SDS011;10386;54.314;10.022;2023-02-15T06:08:18;68.80;;;18.30;;
20454;SDS011;10386;54.314;10.022;2023-02-15T06:10:46;38.07;;;15.53;;
20454;SDS011;10386;54.314;10.022;2023-02-15T06:13:13;86.87;;;16.43;;
20454;SDS011;10386;54.314;10.022;2023-02-15T06:15:39;79.70;;;15.03;;
20454;SDS011;10386;54.314;10.022;2023-02-15T06:18:06;254.93;;;21.97;;
20454;SDS011;10386;54.314;10.022;2023-02-15T06:20:33;75.07;;;17.67;;
20454;SDS011;10386;54.314;10.022;2023-02-15T06:23:00;56.73;;;15.37;;
20454;SDS011;10386;54.314;10.022;2023-02-15T06:25:26;168.53;;;19.87;;
20454;SDS011;10386;54.314;10.022;2023-02-15T06:27:53;214.00;;;21.60;;
20454;SDS011;10386;54.314;10.022;2023-02-15T06:30:21;175.90;;;20.03;;
20454;SDS011;10386;54.314;10.022;2023-02-15T06:32:48;98.03;;;17.50;;
20454;SDS011;10386;54.314;10.022;2023-02-15T06:35:14;118.43;;;16.90;;
20454;SDS011;10386;54.314;10.022;2023-02-15T06:37:41;55.00;;;15.47;;
20454;SDS011;10386;54.314;10.022;2023-02-15T06:40:08;204.57;;;20.83;;
20454;SDS011;10386;54.314;10.022;2023-02-15T06:42:35;42.07;;;14.37;;
20454;SDS011;10386;54.314;10.022;2023-02-15T06:45:02;126.07;;;16.50;;
20454;SDS011;10386;54.314;10.022;2023-02-15T06:47:30;117.93;;;17.93;;
20454;SDS011;10386;54.314;10.022;2023-02-15T06:49:56;78.57;;;15.87;;
20454;SDS011;10386;54.314;10.022;2023-02-15T06:52:23;54.50;;;15.97;;
20454;SDS011;10386;54.314;10.022;2023-02-15T06:54:50;146.67;;;19.13;;
20454;SDS011;10386;54.314;10.022;2023-02-15T06:57:17;98.10;;;16.33;;
20454;SDS011;10386;54.314;10.022;2023-02-15T06:59:44;63.07;;;15.50;;
20454;SDS011;10386;54.314;10.022;2023-02-15T07:02:13;129.63;;;19.93;;
20454;SDS011;10386;54.314;10.022;2023-02-15T07:04:40;84.23;;;16.23;;
20454;SDS011;10386;54.314;10.022;2023-02-15T07:07:08;60.90;;;15.50;;
20454;SDS011;10386;54.314;10.022;2023-02-15T07:09:36;98.30;;;16.50;;
20454;SDS011;10386;54.314;10.022;2023-02-15T07:12:04;90.33;;;16.47;;
20454;SDS011;10386;54.314;10.022;2023-02-15T07:14:50;100.17;;;15.93;;
20454;SDS011;10386;54.314;10.022;2023-02-15T07:17:17;78.80;;;15.97;;
20454;SDS011;10386;54.314;10.022;2023-02-15T07:20:01;99.13;;;16.23;;
20454;SDS011;10386;54.314;10.022;2023-02-15T07:22:32;111.00;;;16.50;;
20454;SDS011;10386;54.314;10.022;2023-02-15T07:25:00;70.53;;;16.87;;
20454;SDS011;10386;54.314;10.022;2023-02-15T07:27:27;72.27;;;14.70;;
20454;SDS011;10386;54.314;10.022;2023-02-15T07:29:54;40.63;;;14.93;;
20454;SDS011;10386;54.314;10.022;2023-02-15T07:32:20;105.33;;;17.30;;
20454;SDS011;10386;54.314;10.022;2023-02-15T07:34:47;49.20;;;15.77;;
20454;SDS011;10386;54.314;10.022;2023-02-15T07:37:14;69.30;;;15.50;;
20454;SDS011;10386;54.314;10.022;2023-02-15T07:39:41;94.60;;;16.10;;
20454;SDS011;10386;54.314;10.022;2023-02-15T07:42:07;52.33;;;14.67;;
20454;SDS011;10386;54.314;10.022;2023-02-15T07:44:34;59.57;;;15.43;;
20454;SDS011;10386;54.314;10.022;2023-02-15T07:47:01;85.60;;;16.27;;
20454;SDS011;10386;54.314;10.022;2023-02-15T07:49:28;67.50;;;15.63;;
20454;SDS011;10386;54.314;10.022;2023-02-15T07:51:54;52.80;;;14.97;;
20454;SDS011;10386;54.314;10.022;2023-02-15T07:54:21;51.73;;;16.00;;
20454;SDS011;10386;54.314;10.022;2023-02-15T07:56:48;69.93;;;15.77;;
20454;SDS011;10386;54.314;10.022;2023-02-15T07:59:15;88.03;;;18.53;;
20454;SDS011;10386;54.314;10.022;2023-02-15T08:01:41;84.20;;;16.33;;
20454;SDS011;10386;54.314;10.022;2023-02-15T08:04:08;56.87;;;14.77;;
20454;SDS011;10386;54.314;10.022;2023-02-15T08:06:37;72.57;;;15.90;;
20454;SDS011;10386;54.314;10.022;2023-02-15T08:09:08;99.10;;;18.50;;
20454;SDS011;10386;54.314;10.022;2023-02-15T08:11:36;109.90;;;19.10;;
20454;SDS011;10386;54.314;10.022;2023-02-15T08:19:00;91.83;;;17.07;;
20454;SDS011;10386;54.314;10.022;2023-02-15T08:22:07;58.87;;;14.00;;
20454;SDS011;10386;54.314;10.022;2023-02-15T08:24:38;101.03;;;16.00;;
20454;SDS011;10386;54.314;10.022;2023-02-15T08:27:05;149.93;;;17.77;;
20454;SDS011;10386;54.314;10.022;2023-02-15T08:29:34;126.40;;;19.27;;
20454;SDS011;10386;54.314;10.022;2023-02-15T08:32:06;82.40;;;16.57;;
20454;SDS011;10386;54.314;10.022;2023-02-15T08:34:37;93.17;;;17.63;;
20454;SDS011;10386;54.314;10.022;2023-02-15T08:37:05;108.30;;;17.53;;
20454;SDS011;10386;54.314;10.022;2023-02-15T08:39:32;90.60;;;17.50;;
20454;SDS011;10386;54.314;10.022;2023-02-15T08:41:59;88.47;;;17.13;;
20454;SDS011;10386;54.314;10.022;2023-02-15T08:44:26;73.20;;;17.27;;
20454;SDS011;10386;54.314;10.022;2023-02-15T08:46:53;106.73;;;17.83;;
20454;SDS011;10386;54.314;10.022;2023-02-15T08:49:21;206.60;;;20.13;;
20454;SDS011;10386;54.314;10.022;2023-02-15T08:51:48;94.37;;;16.93;;
20454;SDS011;10386;54.314;10.022;2023-02-15T08:54:16;64.47;;;17.13;;
20454;SDS011;10386;54.314;10.022;2023-02-15T08:56:45;55.57;;;16.47;;
20454;SDS011;10386;54.314;10.022;2023-02-15T08:59:14;100.93;;;19.53;;
20454;SDS011;10386;54.314;10.022;2023-02-15T09:01:45;107.83;;;19.10;;
20454;SDS011;10386;54.314;10.022;2023-02-15T09:04:13;145.17;;;19.43;;
20454;SDS011;10386;54.314;10.022;2023-02-15T09:06:42;89.00;;;19.10;;
20454;SDS011;10386;54.314;10.022;2023-02-15T09:09:13;102.77;;;20.10;;
20454;SDS011;10386;54.314;10.022;2023-02-15T09:11:41;72.77;;;19.13;;
20454;SDS011;10386;54.314;10.022;2023-02-15T09:14:10;67.97;;;18.57;;
20454;SDS011;10386;54.314;10.022;2023-02-15T09:16:40;111.33;;;19.77;;
20454;SDS011;10386;54.314;10.022;2023-02-15T09:19:08;84.27;;;19.00;;
20454;SDS011;10386;54.314;10.022;2023-02-15T09:21:35;77.17;;;18.30;;
20454;SDS011;10386;54.314;10.022;2023-02-15T09:24:05;159.37;;;20.97;;
20454;SDS011;10386;54.314;10.022;2023-02-15T09:26:34;117.23;;;21.63;;
20454;SDS011;10386;54.314;10.022;2023-02-15T09:29:03;75.90;;;18.20;;
20454;SDS011;10386;54.314;10.022;2023-02-15T09:31:31;96.37;;;20.37;;
20454;SDS011;10386;54.314;10.022;2023-02-15T09:34:20;143.63;;;22.10;;
20454;SDS011;10386;54.314;10.022;2023-02-15T09:36:48;70.67;;;20.83;;
20454;SDS011;10386;54.314;10.022;2023-02-15T09:39:25;116.20;;;20.67;;
20454;SDS011;10386;54.314;10.022;2023-02-15T09:56:33;86.87;;;21.20;;
20454;SDS011;10386;54.314;10.022;2023-02-15T10:13:31;114.90;;;24.77;;
20454;SDS011;10386;54.314;10.022;2023-02-15T10:21:39;134.23;;;23.00;;
20454;SDS011;10386;54.314;10.022;2023-02-15T10:26:52;90.90;;;22.47;;
20454;SDS011;10386;54.314;10.022;2023-02-15T10:34:38;111.37;;;23.70;;
20454;SDS011;10386;54.314;10.022;2023-02-15T10:43:15;174.53;;;26.43;;
20454;SDS011;10386;54.314;10.022;2023-02-15T10:57:09;116.93;;;25.43;;
20454;SDS011;10386;54.314;10.022;2023-02-15T11:00:04;89.33;;;24.80;;
20454;SDS011;10386;54.314;10.022;2023-02-15T11:02:42;82.53;;;23.63;;
20454;SDS011;10386;54.314;10.022;2023-02-15T11:08:22;94.10;;;23.63;;
20454;SDS011;10386;54.314;10.022;2023-02-15T11:10:52;93.90;;;23.70;;
20454;SDS011;10386;54.314;10.022;2023-02-15T11:13:23;113.73;;;24.50;;
20454;SDS011;10386;54.314;10.022;2023-02-15T11:15:55;170.60;;;26.10;;
20454;SDS011;10386;54.314;10.022;2023-02-15T11:18:36;89.30;;;25.17;;
20454;SDS011;10386;54.314;10.022;2023-02-15T11:21:11;158.40;;;26.83;;
20454;SDS011;10386;54.314;10.022;2023-02-15T11:23:44;95.90;;;23.50;;
20454;SDS011;10386;54.314;10.022;2023-02-15T11:26:17;110.30;;;26.43;;
20454;SDS011;10386;54.314;10.022;2023-02-15T11:28:52;75.23;;;24.73;;
20454;SDS011;10386;54.314;10.022;2023-02-15T11:31:24;77.43;;;24.03;;
20454;SDS011;10386;54.314;10.022;2023-02-15T11:33:59;199.07;;;28.17;;
20454;SDS011;10386;54.314;10.022;2023-02-15T11:36:33;82.27;;;24.97;;
20454;SDS011;10386;54.314;10.022;2023-02-15T11:39:07;113.97;;;25.57;;
20454;SDS011;10386;54.314;10.022;2023-02-15T11:41:39;115.47;;;25.30;;
20454;SDS011;10386;54.314;10.022;2023-02-15T11:46:38;89.70;;;24.97;;
20454;SDS011;10386;54.314;10.022;2023-02-15T11:49:13;65.40;;;22.27;;
20454;SDS011;10386;54.314;10.022;2023-02-15T11:51:49;68.30;;;23.70;;
20454;SDS011;10386;54.314;10.022;2023-02-15T11:54:20;70.47;;;25.27;;
20454;SDS011;10386;54.314;10.022;2023-02-15T11:56:52;89.33;;;24.50;;
20454;SDS011;10386;54.314;10.022;2023-02-15T11:59:21;78.20;;;25.87;;
20454;SDS011;10386;54.314;10.022;2023-02-15T12:01:56;66.10;;;25.27;;
20454;SDS011;10386;54.314;10.022;2023-02-15T12:04:28;70.00;;;24.30;;
20454;SDS011;10386;54.314;10.022;2023-02-15T12:07:00;65.67;;;24.77;;
20454;SDS011;10386;54.314;10.022;2023-02-15T12:12:24;72.90;;;24.90;;
20454;SDS011;10386;54.314;10.022;2023-02-15T12:14:59;69.43;;;24.00;;
20454;SDS011;10386;54.314;10.022;2023-02-15T12:17:34;80.03;;;24.23;;
20454;SDS011;10386;54.314;10.022;2023-02-15T12:27:48;70.43;;;25.03;;
20454;SDS011;10386;54.314;10.022;2023-02-15T12:33:22;69.40;;;26.57;;
20454;SDS011;10386;54.314;10.022;2023-02-15T12:36:09;73.17;;;26.83;;
20454;SDS011;10386;54.314;10.022;2023-02-15T12:38:41;76.03;;;26.13;;
20454;SDS011;10386;54.314;10.022;2023-02-15T12:43:53;64.13;;;27.60;;
20454;SDS011;10386;54.314;10.022;2023-02-15T12:46:31;65.43;;;27.07;;
20454;SDS011;10386;54.314;10.022;2023-02-15T12:51:46;63.03;;;27.70;;
20454;SDS011;10386;54.314;10.022;2023-02-15T12:54:41;65.97;;;25.90;;
20454;SDS011;10386;54.314;10.022;2023-02-15T12:57:23;74.97;;;25.47;;
20454;SDS011;10386;54.314;10.022;2023-02-15T13:00:00;64.53;;;25.53;;
20454;SDS011;10386;54.314;10.022;2023-02-15T13:02:41;58.40;;;25.60;;
20454;SDS011;10386;54.314;10.022;2023-02-15T13:05:17;57.07;;;24.20;;
20454;SDS011;10386;54.314;10.022;2023-02-15T13:08:26;59.33;;;25.17;;
20454;SDS011;10386;54.314;10.022;2023-02-15T13:13:22;59.00;;;27.10;;
20454;SDS011;10386;54.314;10.022;2023-02-15T13:15:52;56.27;;;25.70;;
20454;SDS011;10386;54.314;10.022;2023-02-15T13:26:45;54.63;;;25.17;;
20454;SDS011;10386;54.314;10.022;2023-02-15T13:29:24;59.83;;;25.20;;
20454;SDS011;10386;54.314;10.022;2023-02-15T13:31:54;67.17;;;27.43;;
20454;SDS011;10386;54.314;10.022;2023-02-15T13:34:24;69.40;;;28.67;;
20454;SDS011;10386;54.314;10.022;2023-02-15T13:40:08;58.37;;;26.47;;
20454;SDS011;10386;54.314;10.022;2023-02-15T13:43:21;72.77;;;27.43;;
20454;SDS011;10386;54.314;10.022;2023-02-15T13:46:23;64.17;;;26.30;;
20454;SDS011;10386;54.314;10.022;2023-02-15T13:49:14;63.47;;;27.20;;
20454;SDS011;10386;54.314;10.022;2023-02-15T14:11:03;66.87;;;28.33;;
20454;SDS011;10386;54.314;10.022;2023-02-15T14:24:59;76.10;;;29.63;;
20454;SDS011;10386;54.314;10.022;2023-02-15T14:30:28;78.03;;;28.50;;
20454;SDS011;10386;54.314;10.022;2023-02-15T14:35:41;79.05;;;32.03;;
20454;SDS011;10386;54.314;10.022;2023-02-15T14:46:04;81.40;;;31.23;;
20454;SDS011;10386;54.314;10.022;2023-02-15T14:48:46;75.60;;;29.80;;
20454;SDS011;10386;54.314;10.022;2023-02-15T14:56:45;83.07;;;29.67;;
20454;SDS011;10386;54.314;10.022;2023-02-15T14:59:22;92.17;;;31.77;;
20454;SDS011;10386;54.314;10.022;2023-02-15T15:01:51;84.83;;;31.70;;
20454;SDS011;10386;54.314;10.022;2023-02-15T15:07:37;91.03;;;33.33;;
20454;SDS011;10386;54.314;10.022;2023-02-15T15:12:54;85.70;;;34.70;;
20454;SDS011;10386;54.314;10.022;2023-02-15T15:18:05;86.93;;;35.13;;
20454;SDS011;10386;54.314;10.022;2023-02-15T15:25:44;97.90;;;35.40;;
20454;SDS011;10386;54.314;10.022;2023-02-15T15:33:59;106.60;;;37.17;;
20454;SDS011;10386;54.314;10.022;2023-02-15T15:39:32;104.47;;;37.10;;
20454;SDS011;10386;54.314;10.022;2023-02-15T15:45:36;103.47;;;38.93;;
20454;SDS011;10386;54.314;10.022;2023-02-15T15:50:53;109.47;;;38.17;;
20454;SDS011;10386;54.314;10.022;2023-02-15T15:53:24;107.40;;;39.17;;
20454;SDS011;10386;54.314;10.022;2023-02-15T15:55:55;108.77;;;38.23;;
20454;SDS011;10386;54.314;10.022;2023-02-15T15:58:27;105.50;;;39.03;;
20454;SDS011;10386;54.314;10.022;2023-02-15T16:00:59;107.70;;;39.73;;
20454;SDS011;10386;54.314;10.022;2023-02-15T16:03:32;113.07;;;38.30;;
20454;SDS011;10386;54.314;10.022;2023-02-15T16:06:00;108.30;;;38.67;;
20454;SDS011;10386;54.314;10.022;2023-02-15T16:11:10;105.30;;;40.37;;
20454;SDS011;10386;54.314;10.022;2023-02-15T16:13:41;120.47;;;41.80;;
20454;SDS011;10386;54.314;10.022;2023-02-15T16:16:08;170.43;;;41.60;;
20454;SDS011;10386;54.314;10.022;2023-02-15T16:18:39;142.17;;;40.73;;
20454;SDS011;10386;54.314;10.022;2023-02-15T16:21:13;176.83;;;40.77;;
20454;SDS011;10386;54.314;10.022;2023-02-15T16:24:08;112.57;;;38.10;;
20454;SDS011;10386;54.314;10.022;2023-02-15T16:26:44;114.77;;;39.60;;
20454;SDS011;10386;54.314;10.022;2023-02-15T16:29:30;114.47;;;40.13;;
20454;SDS011;10386;54.314;10.022;2023-02-15T16:37:31;134.57;;;37.53;;
20454;SDS011;10386;54.314;10.022;2023-02-15T16:39:59;140.17;;;40.87;;
20454;SDS011;10386;54.314;10.022;2023-02-15T16:42:26;139.80;;;41.73;;
20454;SDS011;10386;54.314;10.022;2023-02-15T16:47:36;137.73;;;42.67;;
20454;SDS011;10386;54.314;10.022;2023-02-15T16:50:15;156.70;;;43.63;;
20454;SDS011;10386;54.314;10.022;2023-02-15T16:52:45;154.97;;;44.87;;
20454;SDS011;10386;54.314;10.022;2023-02-15T16:55:24;154.13;;;44.33;;
20454;SDS011;10386;54.314;10.022;2023-02-15T16:57:55;201.87;;;48.53;;
20454;SDS011;10386;54.314;10.022;2023-02-15T17:00:26;174.60;;;47.17;;
20454;SDS011;10386;54.314;10.022;2023-02-15T17:03:01;172.73;;;46.53;;
20454;SDS011;10386;54.314;10.022;2023-02-15T17:05:32;160.30;;;49.00;;
20454;SDS011;10386;54.314;10.022;2023-02-15T17:08:17;163.90;;;48.30;;
20454;SDS011;10386;54.314;10.022;2023-02-15T17:13:27;214.10;;;50.87;;
20454;SDS011;10386;54.314;10.022;2023-02-15T17:21:25;200.57;;;49.80;;
20454;SDS011;10386;54.314;10.022;2023-02-15T17:23:57;201.43;;;50.13;;
20454;SDS011;10386;54.314;10.022;2023-02-15T17:28:59;196.07;;;51.20;;
20454;SDS011;10386;54.314;10.022;2023-02-15T17:31:35;230.30;;;53.30;;
20454;SDS011;10386;54.314;10.022;2023-02-15T17:34:02;193.37;;;50.63;;
20454;SDS011;10386;54.314;10.022;2023-02-15T17:36:30;187.43;;;52.50;;
20454;SDS011;10386;54.314;10.022;2023-02-15T17:41:25;187.33;;;52.70;;
20454;SDS011;10386;54.314;10.022;2023-02-15T17:43:53;217.07;;;54.43;;
20454;SDS011;10386;54.314;10.022;2023-02-15T17:46:20;202.60;;;48.57;;
20454;SDS011;10386;54.314;10.022;2023-02-15T17:48:51;171.90;;;50.80;;
20454;SDS011;10386;54.314;10.022;2023-02-15T17:51:21;194.37;;;53.47;;
20454;SDS011;10386;54.314;10.022;2023-02-15T17:53:48;234.10;;;53.50;;
20454;SDS011;10386;54.314;10.022;2023-02-15T17:56:34;192.60;;;52.33;;
20454;SDS011;10386;54.314;10.022;2023-02-15T17:59:02;204.67;;;51.10;;
20454;SDS011;10386;54.314;10.022;2023-02-15T18:01:33;252.97;;;53.80;;
20454;SDS011;10386;54.314;10.022;2023-02-15T18:04:20;254.73;;;51.70;;
20454;SDS011;10386;54.314;10.022;2023-02-15T18:07:10;183.67;;;48.13;;
20454;SDS011;10386;54.314;10.022;2023-02-15T18:09:57;167.77;;;48.17;;
20454;SDS011;10386;54.314;10.022;2023-02-15T18:12:43;191.93;;;49.87;;
20454;SDS011;10386;54.314;10.022;2023-02-15T18:15:09;177.30;;;49.60;;
20454;SDS011;10386;54.314;10.022;2023-02-15T18:17:39;206.90;;;51.13;;
20454;SDS011;10386;54.314;10.022;2023-02-15T18:20:19;180.00;;;50.67;;
20454;SDS011;10386;54.314;10.022;2023-02-15T18:22:50;166.63;;;51.37;;
20454;SDS011;10386;54.314;10.022;2023-02-15T18:25:18;183.17;;;52.63;;